地図

経路データ

SID SEASON NUMBER BASIN SUBBASIN NAME ISO_TIME NATURE LAT LON WMO_WIND WMO_PRES WMO_AGENCY TRACK_TYPE DIST2LAND LANDFALL IFLAG USA_AGENCY USA_ATCF_ID USA_LAT USA_LON USA_RECORD USA_STATUS USA_WIND USA_PRES USA_SSHS USA_R34_NE USA_R34_SE USA_R34_SW USA_R34_NW USA_R50_NE USA_R50_SE USA_R50_SW USA_R50_NW USA_R64_NE USA_R64_SE USA_R64_SW USA_R64_NW USA_POCI USA_ROCI USA_RMW USA_EYE TOKYO_LAT TOKYO_LON TOKYO_GRADE TOKYO_WIND TOKYO_PRES TOKYO_R50_DIR TOKYO_R50_LONG TOKYO_R50_SHORT TOKYO_R30_DIR TOKYO_R30_LONG TOKYO_R30_SHORT TOKYO_LAND CMA_LAT CMA_LON CMA_CAT CMA_WIND CMA_PRES HKO_LAT HKO_LON HKO_CAT HKO_WIND HKO_PRES NEWDELHI_LAT NEWDELHI_LON NEWDELHI_GRADE NEWDELHI_WIND NEWDELHI_PRES NEWDELHI_CI NEWDELHI_DP NEWDELHI_POCI REUNION_LAT REUNION_LON REUNION_TYPE REUNION_WIND REUNION_PRES REUNION_TNUM REUNION_CI REUNION_RMW REUNION_R34_NE REUNION_R34_SE REUNION_R34_SW REUNION_R34_NW REUNION_R50_NE REUNION_R50_SE REUNION_R50_SW REUNION_R50_NW REUNION_R64_NE REUNION_R64_SE REUNION_R64_SW REUNION_R64_NW BOM_LAT BOM_LON BOM_TYPE BOM_WIND BOM_PRES BOM_TNUM BOM_CI BOM_RMW BOM_R34_NE BOM_R34_SE BOM_R34_SW BOM_R34_NW BOM_R50_NE BOM_R50_SE BOM_R50_SW BOM_R50_NW BOM_R64_NE BOM_R64_SE BOM_R64_SW BOM_R64_NW BOM_ROCI BOM_POCI BOM_EYE BOM_POS_METHOD BOM_PRES_METHOD NADI_LAT NADI_LON NADI_CAT NADI_WIND NADI_PRES WELLINGTON_LAT WELLINGTON_LON WELLINGTON_WIND WELLINGTON_PRES DS824_LAT DS824_LON DS824_STAGE DS824_WIND DS824_PRES TD9636_LAT TD9636_LON TD9636_STAGE TD9636_WIND TD9636_PRES TD9635_LAT TD9635_LON TD9635_WIND TD9635_PRES TD9635_ROCI NEUMANN_LAT NEUMANN_LON NEUMANN_CLASS NEUMANN_WIND NEUMANN_PRES MLC_LAT MLC_LON MLC_CLASS MLC_WIND MLC_PRES USA_GUST BOM_GUST BOM_GUST_PER REUNION_GUST REUNION_GUST_PER USA_SEAHGT USA_SEARAD_NE USA_SEARAD_SE USA_SEARAD_SW USA_SEARAD_NW STORM_SPEED STORM_DIR
1887282N19300 1887 64 NA NA NOT_NAMED 1887-10-09 06:00:00 TS 19.1000 -59.7000 35 hurdat_atl main 626 563 O_____________ hurdat_atl AL131887 19.1000 -59.7000 TS 35 0 12 275
1887282N19300 1887 64 NA NA NOT_NAMED 1887-10-09 09:00:00 TS 19.1479 -60.3400 main 563 492 P_____________ AL131887 19.1479 -60.3400 TS 37 0 12 275
1887282N19300 1887 64 NA NA NOT_NAMED 1887-10-09 12:00:00 TS 19.2000 -61.0000 40 hurdat_atl main 492 422 O_____________ hurdat_atl AL131887 19.2000 -61.0000 TS 40 0 13 275
1887282N19300 1887 64 NA NA NOT_NAMED 1887-10-09 15:00:00 TS 19.2573 -61.6924 main 422 351 P_____________ AL131887 19.2573 -61.6924 TS 42 0 13 274
1887282N19300 1887 64 NA NA NOT_NAMED 1887-10-09 18:00:00 TS 19.3000 -62.4000 45 hurdat_atl main 351 281 O_____________ hurdat_atl AL131887 19.3000 -62.4000 TS 45 0 13 272
1887282N19300 1887 64 NA NA NOT_NAMED 1887-10-09 21:00:00 TS 19.2997 -63.1002 main 281 214 P_____________ AL131887 19.2997 -63.1002 TS 47 0 13 270
1887282N19300 1887 64 NA NA NOT_NAMED 1887-10-10 00:00:00 TS 19.3000 -63.8000 50 hurdat_atl main 214 153 O_____________ hurdat_atl AL131887 19.3000 -63.8000 TS 50 0 13 272
1887282N19300 1887 64 NA NA NOT_NAMED 1887-10-10 03:00:00 TS 19.3497 -64.4998 main 153 119 P_____________ AL131887 19.3497 -64.4998 TS 52 0 13 274
1887282N19300 1887 64 NA NA NOT_NAMED 1887-10-10 06:00:00 TS 19.4000 -65.2000 55 hurdat_atl main 119 111 O_____________ hurdat_atl AL131887 19.4000 -65.2000 TS 55 0 13 272
1887282N19300 1887 64 NA NA NOT_NAMED 1887-10-10 09:00:00 TS 19.4072 -65.9001 main 111 111 P_____________ AL131887 19.4072 -65.9001 TS 57 0 13 270
1887282N19300 1887 64 NA NA NOT_NAMED 1887-10-10 12:00:00 TS 19.4000 -66.6000 60 hurdat_atl main 111 111 O_____________ hurdat_atl AL131887 19.4000 -66.6000 TS 60 0 13 270
1887282N19300 1887 64 NA NA NOT_NAMED 1887-10-10 15:00:00 TS 19.3995 -67.2775 main 111 92 P_____________ AL131887 19.3995 -67.2775 TS 60 0 13 270
1887282N19300 1887 64 NA NA NOT_NAMED 1887-10-10 18:00:00 TS 19.4000 -68.0000 60 hurdat_atl main 92 47 O_____________ hurdat_atl AL131887 19.4000 -68.0000 TS 60 0 15 270
1887282N19300 1887 64 NA NA NOT_NAMED 1887-10-10 21:00:00 TS 19.4002 -68.8500 main 47 10 P_____________ AL131887 19.4002 -68.8500 TS 60 0 16 270
1887282N19300 1887 64 NA NA NOT_NAMED 1887-10-11 00:00:00 TS 19.4000 -69.7000 60 hurdat_atl main 10 0 O_____________ hurdat_atl AL131887 19.4000 -69.7000 TS 60 0 15 270
1887282N19300 1887 64 NA NA NOT_NAMED 1887-10-11 03:00:00 TS 19.3918 -70.4076 main 0 0 P_____________ AL131887 19.3918 -70.4076 TS 55 0 13 270
1887282N19300 1887 64 NA NA NOT_NAMED 1887-10-11 06:00:00 TS 19.4000 -71.1000 50 hurdat_atl main 0 0 O_____________ hurdat_atl AL131887 19.4000 -71.1000 TS 50 0 14 272
1887282N19300 1887 64 NA NA NOT_NAMED 1887-10-11 09:00:00 TS 19.4498 -71.8848 main 0 0 P_____________ AL131887 19.4498 -71.8848 TS 47 0 15 274
1887282N19300 1887 64 NA NA NOT_NAMED 1887-10-11 12:00:00 TS 19.5000 -72.7000 45 hurdat_atl main 0 0 O_____________ hurdat_atl AL131887 19.5000 -72.7000 TS 45 0 15 272
1887282N19300 1887 64 NA CS NOT_NAMED 1887-10-11 15:00:00 TS 19.4995 -73.4927 main 15 15 P_____________ AL131887 19.4995 -73.4927 TS 50 0 15 270
1887282N19300 1887 64 NA CS NOT_NAMED 1887-10-11 18:00:00 TS 19.5000 -74.3000 55 hurdat_atl main 67 44 O_____________ hurdat_atl AL131887 19.5000 -74.3000 TS 55 0 16 272
1887282N19300 1887 64 NA CS NOT_NAMED 1887-10-11 21:00:00 TS 19.5425 -75.1649 main 44 33 P_____________ AL131887 19.5425 -75.1649 TS 60 0 16 274
1887282N19300 1887 64 NA CS NOT_NAMED 1887-10-12 00:00:00 TS 19.6000 -76.0000 65 hurdat_atl main 44 44 O_____________ hurdat_atl AL131887 19.6000 -76.0000 HU 65 1 15 274
1887282N19300 1887 64 NA CS NOT_NAMED 1887-10-12 03:00:00 TS 19.6345 -76.7302 main 44 22 P_____________ AL131887 19.6345 -76.7302 HU 67 1 13 274
1887282N19300 1887 64 NA CS NOT_NAMED 1887-10-12 06:00:00 TS 19.7000 -77.4000 70 hurdat_atl main 22 0 O_____________ hurdat_atl AL131887 19.7000 -77.4000 HU 70 1 13 279
1887282N19300 1887 64 NA CS NOT_NAMED 1887-10-12 09:00:00 TS 19.8348 -78.0724 main 41 41 P_____________ AL131887 19.8348 -78.0724 HU 72 1 13 284
1887282N19300 1887 64 NA CS NOT_NAMED 1887-10-12 12:00:00 TS 20.0000 -78.7000 75 hurdat_atl main 106 106 O_____________ hurdat_atl AL131887 20.0000 -78.7000 HU 75 1 12 285
1887282N19300 1887 64 NA CS NOT_NAMED 1887-10-12 15:00:00 TS 20.1422 -79.2652 main 130 122 P_____________ AL131887 20.1422 -79.2652 HU 75 1 11 286
1887282N19300 1887 64 NA CS NOT_NAMED 1887-10-12 18:00:00 TS 20.3000 -79.8000 75 hurdat_atl main 147 137 O_____________ hurdat_atl AL131887 20.3000 -79.8000 HU 75 1 11 289
1887282N19300 1887 64 NA CS NOT_NAMED 1887-10-12 21:00:00 TS 20.4924 -80.3575 main 140 133 P_____________ AL131887 20.4924 -80.3575 HU 75 1 11 291
1887282N19300 1887 64 NA CS NOT_NAMED 1887-10-13 00:00:00 TS 20.7000 -80.9000 75 hurdat_atl main 145 123 O_____________ hurdat_atl AL131887 20.7000 -80.9000 HU 75 1 11 292
1887282N19300 1887 64 NA CS NOT_NAMED 1887-10-13 03:00:00 TS 20.8999 -81.4226 main 124 83 P_____________ AL131887 20.8999 -81.4226 HU 75 1 10 293
1887282N19300 1887 64 NA CS NOT_NAMED 1887-10-13 06:00:00 TS 21.1000 -81.9000 75 hurdat_atl main 83 39 O_____________ hurdat_atl AL131887 21.1000 -81.9000 HU 75 1 9 296
1887282N19300 1887 64 NA CS NOT_NAMED 1887-10-13 09:00:00 TS 21.3148 -82.3225 main 39 0 P_____________ AL131887 21.3148 -82.3225 HU 75 1 8 298
1887282N19300 1887 64 NA CS NOT_NAMED 1887-10-13 12:00:00 TS 21.5000 -82.7000 75 hurdat_atl main 0 0 O_____________ hurdat_atl AL131887 21.5000 -82.7000 HU 75 1 7 293
1887282N19300 1887 64 NA CS NOT_NAMED 1887-10-13 15:00:00 TS 21.6074 -83.0577 main 10 10 P_____________ AL131887 21.6074 -83.0577 HU 75 1 7 287
1887282N19300 1887 64 NA CS NOT_NAMED 1887-10-13 18:00:00 TS 21.7000 -83.4000 75 hurdat_atl main 32 32 O_____________ hurdat_atl AL131887 21.7000 -83.4000 HU 75 1 7 290
1887282N19300 1887 64 NA CS NOT_NAMED 1887-10-13 21:00:00 TS 21.8500 -83.7574 main 23 0 P_____________ AL131887 21.8500 -83.7574 HU 72 1 7 295
1887282N19300 1887 64 NA NA NOT_NAMED 1887-10-14 00:00:00 TS 22.0000 -84.1000 70 hurdat_atl main 0 0 O_____________ hurdat_atl AL131887 22.0000 -84.1000 HU 70 1 7 293
1887282N19300 1887 64 NA GM NOT_NAMED 1887-10-14 03:00:00 TS 22.0999 -84.4077 main 10 10 P_____________ AL131887 22.0999 -84.4077 HU 67 1 6 290
1887282N19300 1887 64 NA GM NOT_NAMED 1887-10-14 06:00:00 TS 22.2000 -84.7000 65 hurdat_atl main 30 30 O_____________ hurdat_atl AL131887 22.2000 -84.7000 HU 65 1 6 295
1887282N19300 1887 64 NA GM NOT_NAMED 1887-10-14 09:00:00 TS 22.3574 -84.9999 main 55 55 P_____________ AL131887 22.3574 -84.9999 HU 65 1 6 298
1887282N19300 1887 64 NA GM NOT_NAMED 1887-10-14 12:00:00 TS 22.5000 -85.3000 65 hurdat_atl main 73 73 O_____________ hurdat_atl AL131887 22.5000 -85.3000 HU 65 1 6 289
1887282N19300 1887 64 NA GM NOT_NAMED 1887-10-14 15:00:00 TS 22.5499 -85.6002 main 91 91 P_____________ AL131887 22.5499 -85.6002 HU 67 1 6 280
1887282N19300 1887 64 NA GM NOT_NAMED 1887-10-14 18:00:00 TS 22.6000 -85.9000 70 hurdat_atl main 121 121 O_____________ hurdat_atl AL131887 22.6000 -85.9000 HU 70 1 6 289
1887282N19300 1887 64 NA GM NOT_NAMED 1887-10-14 21:00:00 TS 22.7425 -86.2074 main 152 152 P_____________ AL131887 22.7425 -86.2074 HU 72 1 6 298
1887282N19300 1887 64 NA GM NOT_NAMED 1887-10-15 00:00:00 TS 22.9000 -86.5000 75 hurdat_atl main 164 161 O_____________ hurdat_atl AL131887 22.9000 -86.5000 HU 75 1 6 298
1887282N19300 1887 64 NA GM NOT_NAMED 1887-10-15 03:00:00 TS 23.0074 -86.7576 main 168 168 P_____________ AL131887 23.0074 -86.7576 HU 75 1 5 293
1887282N19300 1887 64 NA GM NOT_NAMED 1887-10-15 06:00:00 TS 23.1000 -87.0000 75 hurdat_atl main 178 178 O_____________ hurdat_atl AL131887 23.1000 -87.0000 HU 75 1 5 292
1887282N19300 1887 64 NA GM NOT_NAMED 1887-10-15 09:00:00 TS 23.2000 -87.2650 main 191 191 P_____________ AL131887 23.2000 -87.2650 HU 75 1 5 293
1887282N19300 1887 64 NA GM NOT_NAMED 1887-10-15 12:00:00 TS 23.3000 -87.5000 75 hurdat_atl main 202 201 O_____________ hurdat_atl AL131887 23.3000 -87.5000 HU 75 1 4 299
1887282N19300 1887 64 NA GM NOT_NAMED 1887-10-15 15:00:00 TS 23.3999 -87.6576 main 212 212 P_____________ AL131887 23.3999 -87.6576 HU 75 1 3 306
1887282N19300 1887 64 NA GM NOT_NAMED 1887-10-15 18:00:00 TS 23.5000 -87.8000 75 hurdat_atl main 223 223 O_____________ hurdat_atl AL131887 23.5000 -87.8000 HU 75 1 4 302
1887282N19300 1887 64 NA GM NOT_NAMED 1887-10-15 21:00:00 TS 23.6000 -88.0000 main 234 234 P_____________ AL131887 23.6000 -88.0000 HU 75 1 4 299
1887282N19300 1887 64 NA GM NOT_NAMED 1887-10-16 00:00:00 TS 23.7000 -88.2000 75 hurdat_atl main 245 245 O_____________ hurdat_atl AL131887 23.7000 -88.2000 HU 75 1 4 301
1887282N19300 1887 64 NA GM NOT_NAMED 1887-10-16 03:00:00 TS 23.8000 -88.3575 main 257 257 P_____________ AL131887 23.8000 -88.3575 HU 75 1 3 306
1887282N19300 1887 64 NA GM NOT_NAMED 1887-10-16 06:00:00 TS 23.9000 -88.5000 75 hurdat_atl main 268 268 O_____________ hurdat_atl AL131887 23.9000 -88.5000 HU 75 1 3 308
1887282N19300 1887 64 NA GM NOT_NAMED 1887-10-16 09:00:00 TS 23.9999 -88.6351 main 279 279 P_____________ AL131887 23.9999 -88.6351 HU 75 1 3 306
1887282N19300 1887 64 NA GM NOT_NAMED 1887-10-16 12:00:00 TS 24.1000 -88.8000 75 hurdat_atl main 291 291 O_____________ hurdat_atl AL131887 24.1000 -88.8000 HU 75 1 4 298
1887282N19300 1887 64 NA GM NOT_NAMED 1887-10-16 15:00:00 TS 24.2001 -89.0500 main 304 304 P_____________ AL131887 24.2001 -89.0500 HU 75 1 5 294
1887282N19300 1887 64 NA GM NOT_NAMED 1887-10-16 18:00:00 TS 24.3000 -89.3000 75 hurdat_atl main 321 321 O_____________ hurdat_atl AL131887 24.3000 -89.3000 HU 75 1 4 297
1887282N19300 1887 64 NA GM NOT_NAMED 1887-10-16 21:00:00 TS 24.3924 -89.4651 main 336 332 P_____________ AL131887 24.3924 -89.4651 HU 75 1 4 275
1887282N19300 1887 64 NA GM NOT_NAMED 1887-10-17 00:00:00 TS 24.3333 -89.7444 75 hurdat_atl main 332 332 O____________O hurdat_atl AL131887 24.5000 -89.6000 HU 75 1 23.0000 -90.9000 HU 70 5 269
1887282N19300 1887 64 NA GM NOT_NAMED 1887-10-17 03:00:00 TS 24.3840 -89.9985 main 353 353 P____________P AL131887 24.6425 -89.7500 HU 75 1 23.3500 -90.9974 HU 72 5 291
1887282N19300 1887 64 NA GM NOT_NAMED 1887-10-17 06:00:00 TS 24.5000 -90.2273 75 hurdat_atl main 369 369 O____________O hurdat_atl AL131887 24.8000 -89.9000 HU 75 1 23.7000 -91.1000 HU 75 5 303
1887282N19300 1887 64 NA GM NOT_NAMED 1887-10-17 09:00:00 TS 24.6400 -90.4359 main 383 383 P____________P AL131887 24.9350 -90.0501 HU 75 1 24.0500 -91.2075 HU 75 5 320
1887282N19300 1887 64 NA GM NOT_NAMED 1887-10-17 12:00:00 TS 24.8667 -90.5667 75 hurdat_atl main 419 419 O____________O hurdat_atl AL131887 25.1000 -90.2000 HU 75 1 24.4000 -91.3000 HU 75 5 336
1887282N19300 1887 64 NA GM NOT_NAMED 1887-10-17 15:00:00 TS 25.1325 -90.6834 main 443 413 P____________P AL131887 25.3200 -90.3426 HU 75 1 24.7575 -91.3650 HU 75 6 339
1887282N19300 1887 64 NA GM NOT_NAMED 1887-10-17 18:00:00 TS 25.4333 -90.8000 75 hurdat_atl main 413 379 O____________O hurdat_atl AL131887 25.6000 -90.5000 HU 75 1 25.1000 -91.4000 HU 75 7 340
1887282N19300 1887 64 NA GM NOT_NAMED 1887-10-17 21:00:00 TS 25.7517 -90.9358 main 368 335 P____________P AL131887 25.9275 -90.7000 HU 75 1 25.4000 -91.4076 HU 75 7 340
1887282N19300 1887 64 NA GM NOT_NAMED 1887-10-18 00:00:00 TS 26.1000 -91.0667 75 hurdat_atl main 335 291 O____________O hurdat_atl AL131887 26.3000 -90.9000 HU 75 1 25.7000 -91.4000 HU 75 8 343
1887282N19300 1887 64 NA GM NOT_NAMED 1887-10-18 03:00:00 TS 26.4858 -91.1841 main 291 258 P____________P AL131887 26.7075 -91.0725 HU 75 1 26.0425 -91.4074 HU 75 8 347
1887282N19300 1887 64 NA GM NOT_NAMED 1887-10-18 06:00:00 TS 26.8667 -91.2667 75 hurdat_atl main 248 215 O____________O hurdat_atl AL131887 27.1000 -91.2000 HU 75 1 26.4000 -91.4000 HU 75 7 351
1887282N19300 1887 64 NA GM NOT_NAMED 1887-10-18 09:00:00 TS 27.1933 -91.3133 main 215 182 P____________P AL131887 27.4150 -91.2875 HU 75 1 26.7500 -91.3650 HU 75 6 357
1887282N19300 1887 64 NA GM NOT_NAMED 1887-10-18 12:00:00 TS 27.5000 -91.3000 75 hurdat_atl main 182 148 O____________O hurdat_atl AL131887 27.7000 -91.3000 HU 75 1 27.1000 -91.3000 HU 75 6 6
1887282N19300 1887 64 NA GM NOT_NAMED 1887-10-18 15:00:00 TS 27.8166 -91.2300 main 148 113 P____________P AL131887 28.0000 -91.2375 HU 75 1 27.4500 -91.2149 HU 75 7 16
1887282N19300 1887 64 NA GM NOT_NAMED 1887-10-18 18:00:00 TS 28.1333 -91.1000 75 hurdat_atl main 113 78 O____________O hurdat_atl AL131887 28.3000 -91.1000 HU 75 1 27.8000 -91.1000 HU 75 7 20
1887282N19300 1887 64 NA GM NOT_NAMED 1887-10-18 21:00:00 TS 28.4499 -90.9664 main 78 45 P____________P AL131887 28.5998 -90.9709 HU 75 1 28.1500 -90.9575 HU 75 7 27
1887282N19300 1887 64 NA GM NOT_NAMED 1887-10-19 00:00:00 TS 28.7667 -90.7333 75 hurdat_atl main 34 14 O____________O hurdat_atl AL131887 28.9000 -90.7000 HU 75 1 28.5000 -90.8000 HU 75 8 37
1887282N19300 1887 64 NA GM NOT_NAMED 1887-10-19 02:00:00 TS 28.9795 -90.5072 75 hurdat_atl main 14 14 O____________P hurdat_atl AL131887 29.1000 -90.4000 HU 75 1 28.7386 -90.7215 HU 73 8 41
1887282N19300 1887 64 NA GM NOT_NAMED 1887-10-19 03:00:00 TS 29.0845 -90.4166 main 14 0 P____________P AL131887 29.1981 -90.2851 HU 72 1 28.8573 -90.6797 HU 72 8 35
1887282N19300 1887 64 NA NA NOT_NAMED 1887-10-19 06:00:00 TS 29.4000 -90.1667 65 hurdat_atl main 0 0 O____________O hurdat_atl AL131887 29.5000 -90.0000 HU 65 1 29.2000 -90.5000 HU 70 8 38
1887282N19300 1887 64 NA NA NOT_NAMED 1887-10-19 09:00:00 TS 29.7265 -89.8346 main 0 0 P____________P AL131887 29.8408 -89.5914 HU 60 0 29.4979 -90.3209 HU 67 10 47
1887282N19300 1887 64 NA GM NOT_NAMED 1887-10-19 12:00:00 TS 30.0667 -89.3333 55 hurdat_atl main 22 0 O____________O hurdat_atl AL131887 30.2000 -89.1000 TS 55 0 29.8000 -89.8000 HU 65 988 13 57
1887282N19300 1887 64 NA NA NOT_NAMED 1887-10-19 15:00:00 TS 30.4223 -88.6034 main 0 0 P____________P AL131887 30.5565 -88.6243 TS 50 0 30.1540 -88.5618 HU 60 15 63
1887282N19300 1887 64 NA NA NOT_NAMED 1887-10-19 18:00:00 TS 30.7667 -87.7333 45 hurdat_atl main 0 0 O____________O hurdat_atl AL131887 30.9000 -88.0000 TS 45 0 30.5000 -87.2000 TS 55 16 67
1887282N19300 1887 64 NA NA NOT_NAMED 1887-10-19 21:00:00 TS 31.0686 -86.8667 main 0 0 P____________P AL131887 31.2003 -87.1169 TS 40 0 30.8052 -86.3661 TS 47 16 68
1887282N19300 1887 64 NA NA NOT_NAMED 1887-10-20 00:00:00 TS 31.3667 -85.9667 35 hurdat_atl main 0 0 O____________O hurdat_atl AL131887 31.5000 -86.1000 TS 35 0 31.1000 -85.7000 TS 40 17 68
1887282N19300 1887 64 NA NA NOT_NAMED 1887-10-20 03:00:00 TS 31.6923 -85.0397 main 0 0 P____________P AL131887 31.8350 -85.0772 TS 32 -1 31.4068 -84.9646 TS 35 17 67
1887282N19300 1887 64 NA NA NOT_NAMED 1887-10-20 06:00:00 TS 32.0333 -84.1333 30 hurdat_atl main 0 0 O____________O hurdat_atl AL131887 32.2000 -84.1000 TD 30 -1 31.7000 -84.2000 TD 30 15 67
1887282N19300 1887 64 NA NA NOT_NAMED 1887-10-20 09:00:00 TS 32.2773 -83.4018 main 0 0 P____________P AL131887 32.5447 -83.3412 TD 30 -1 31.7425 -83.5231 TD 30 15 63
1887282N19300 1887 64 NA NA NOT_NAMED 1887-10-20 12:00:00 TS 32.7333 -82.5000 30 hurdat_atl main 0 0 O____________O hurdat_atl AL131887 33.0000 -82.5000 TD 30 -1 32.2000 -82.5000 TD 30 24 54
1887282N19300 1887 64 NA NA NOT_NAMED 1887-10-20 15:00:00 TS 33.7026 -81.0674 main 0 0 P____________P AL131887 33.6628 -81.2909 TD 30 -1 33.7821 -80.6203 TD 30 33 51
1887282N19300 1887 64 NA NA NOT_NAMED 1887-10-20 18:00:00 TS 34.7667 -79.4333 30 hurdat_atl main 0 0 O____________O hurdat_atl AL131887 34.4000 -79.9000 TD 30 -1 35.5000 -78.5000 TD 30 31 55
1887282N19300 1887 64 NA NA NOT_NAMED 1887-10-20 21:00:00 TS 35.4669 -77.9919 main 0 0 P____________P AL131887 35.0107 -78.5320 TD 32 -1 36.3794 -76.9115 TD 32 27 60
1887282N19300 1887 64 NA NA NOT_NAMED 1887-10-21 00:00:00 ET 36.1333 -76.5667 35 hurdat_atl main 0 0 O____________O hurdat_atl AL131887 35.7000 -77.1000 EX 35 -4 37.0000 -75.5000 EX 35 29 59
1887282N19300 1887 64 NA NA NOT_NAMED 1887-10-21 03:00:00 ET 36.9514 -74.9280 main 89 89 P____________P AL131887 36.6067 -75.4927 EX 37 -4 37.6408 -73.7985 EX 40 30 54
1887282N19300 1887 64 NA NA NOT_NAMED 1887-10-21 06:00:00 ET 37.9000 -73.5000 40 hurdat_atl main 146 143 O____________O hurdat_atl AL131887 37.6000 -74.0000 EX 40 -4 38.5000 -72.5000 EX 45 27 40
1887282N19300 1887 64 NA NA NOT_NAMED 1887-10-21 09:00:00 ET 38.9978 -72.7579 main 140 88 P____________P AL131887 38.4995 -72.9811 EX 42 -4 39.9943 -72.3117 EX 45 25 26
1887282N19300 1887 64 NA NA NOT_NAMED 1887-10-21 12:00:00 ET 40.1667 -72.0667 45 hurdat_atl main 78 56 O____________O hurdat_atl AL131887 39.5000 -72.0000 EX 45 -4 41.5000 -72.2000 EX 45 26 36
1887282N19300 1887 64 NA NA NOT_NAMED 1887-10-21 15:00:00 ET 41.1023 -70.7703 main 45 8 P____________P AL131887 40.5468 -70.6177 EX 45 -4 42.2133 -71.0754 EX 45 31 45
1887282N19300 1887 64 NA NA NOT_NAMED 1887-10-21 18:00:00 ET 42.3333 -69.1667 45 hurdat_atl main 86 45 O____________O hurdat_atl AL131887 42.0000 -69.0000 EX 45 -4 43.0000 -69.5000 EX 45 40 38
1887282N19300 1887 64 NA NA NOT_NAMED 1887-10-21 21:00:00 ET 44.2466 -67.4012 main 36 0 P____________P AL131887 44.1115 -67.1992 EX 45 -4 44.5169 -67.8052 EX 45 50 32
1887282N19300 1887 64 NA NA NOT_NAMED 1887-10-22 00:00:00 ET 46.5667 -65.4667 45 hurdat_atl main 0 O____________O hurdat_atl AL131887 46.6000 -65.2000 EX 45 -4 46.5000 -66.0000 EX 45 54 30

IBTrACS Databaseについて

本データベースは、米国NOAAが公開する1842年以降の世界の熱帯低気圧のベストトラックデータアーカイブInternational Best Track Archive for Climate Stewardship (IBTrACS)を、ウェブで閲覧しやすい形式に変換したものです。

最終更新日:2021-10-19